Latest Weather Observations for Clermont Airport

IDQ60801

Issued at 11:32 pm EST Tuesday 7 July 2015 (issued every 30 minutes, with the page automatically refreshed every 10 minutes)

About weather observations | Map of weather stations | Latest weather observations for QLD | Other Formats
Station Details ID: 035124 Name: CLERMONT AIRPORT Lat: -22.78 Lon: 147.62 Height: 270.27 m
Data from the previous 72 hours. | See also: Recent months at Clermont Airport
Date/Time
EST
Temp
°C
App
Temp
°C
Dew
Point
Rel
Hum
%
Delta-T
°C
Wind Press
QNH
hPa
Press
MSL
hPa
Rain
since 9 am
mm
Dir
 
Spd
km/h
Gust
km/h
Spd
kts
Gust
kts
07/11:30pm 13.8 11.5 4.9 55 4.2 SW 6 7 3 4 1018.6 1018.3 0.0
07/11:00pm 13.4 11.1 4.8 56 4.0 W 6 7 3 4 1018.8 1018.5 0.0
07/10:30pm 13.3 11.8 5.0 57 3.9 S 2 11 1 6 1018.7 1018.4 0.0
07/10:00pm 14.0 12.5 5.1 55 4.2 S 2 4 1 2 1018.7 1018.4 0.0
07/09:30pm 14.1 12.2 4.9 54 4.3 SSW 4 6 2 3 1018.6 1018.3 0.0
07/09:00pm 13.8 12.0 5.2 56 4.1 SW 4 6 2 3 1018.6 1018.3 0.0
07/08:30pm 13.8 12.6 4.7 54 4.3 CALM 0 0 0 0 1018.4 1018.0 0.0
07/08:00pm 14.2 12.9 4.2 51 4.6 CALM 0 0 0 0 1018.2 1017.8 0.0
07/07:30pm 15.1 13.8 4.2 48 5.1 CALM 0 0 0 0 1017.9 1017.6 0.0
07/07:00pm 15.4 14.1 3.9 46 5.4 CALM 0 2 0 1 1017.7 1017.4 0.0
07/06:30pm 17.2 16.1 4.9 44 6.0 CALM 0 0 0 0 1017.5 1017.2 0.0
07/06:00pm 19.0 17.8 4.4 38 7.1 CALM 0 2 0 1 1017.3 1017.0 0.0
07/05:30pm 20.4 18.7 4.0 34 8.0 SE 2 4 1 2 1017.0 1016.7 0.0
07/05:00pm 23.0 20.7 5.0 31 9.1 SE 6 6 3 3 1016.8 1016.5 0.0
07/04:30pm 23.7 21.3 5.1 30 9.4 SE 7 13 4 7 1016.6 1016.3 0.0
07/04:00pm 24.8 22.7 5.6 29 9.9 SE 6 15 3 8 1016.4 1016.1 0.0
07/03:30pm 24.8 22.4 5.1 28 10.1 S 7 13 4 7 1016.4 1016.1 0.0
07/03:00pm 24.7 22.4 5.0 28 10.0 E 6 13 3 7 1016.4 1016.1 0.0
07/02:30pm 24.6 23.0 6.4 31 9.5 SW 4 13 2 7 1016.5 1016.2 0.0
07/02:00pm 24.8 22.6 6.1 30 9.7 SE 7 17 4 9 1016.7 1016.4 0.0
07/01:30pm 24.7 23.3 7.4 33 9.2 ESE 4 11 2 6 1016.9 1016.6 0.0
07/01:00pm 24.2 22.4 7.8 35 8.8 E 7 13 4 7 1017.1 1016.8 0.0
07/12:30pm 23.7 22.1 8.2 37 8.3 ESE 6 15 3 8 1017.6 1017.3 0.0
07/12:00pm 22.9 20.7 7.8 38 8.0 NNE 9 17 5 9 1018.4 1018.0 0.0
07/11:30am 22.1 20.9 9.6 45 6.8 NNW 6 9 3 5 1018.8 1018.5 0.0
07/11:00am 21.8 20.6 9.7 46 6.6 SE 6 9 3 5 1019.3 1019.0 0.0
07/10:30am 20.0 18.7 9.3 50 5.7 SW 6 9 3 5 1019.5 1019.2 0.0
07/10:00am 19.2 17.9 9.1 52 5.4 N 6 9 3 5 1019.7 1019.4 0.0
07/09:30am 18.0 17.0 8.8 55 4.8 SE 4 6 2 3 1020.0 1019.7 0.0
07/09:00am 16.5 15.3 8.0 57 4.3 ESE 4 7 2 4 1019.8 1019.5 0.0
07/08:30am 14.1 12.6 6.9 62 3.5 ESE 4 6 2 3 1019.7 1019.4 0.0
07/08:00am 11.2 10.3 5.9 70 2.5 CALM 0 0 0 0 1019.4 1019.1 0.0
07/07:30am 8.4 7.4 5.7 83 1.2 CALM 0 0 0 0 1019.1 1018.8 0.0
07/07:00am 6.7 5.4 4.0 83 1.2 CALM 0 0 0 0 1018.7 1018.4 0.0
07/06:30am 7.1 5.7 3.7 79 1.5 CALM 0 0 0 0 1018.1 1017.7 0.0
07/06:00am 9.4 7.6 7.0 85 1.1 WSW 6 7 3 4 1017.6 1017.3 0.0
07/05:30am 8.1 6.3 5.6 84 1.1 WSW 4 7 2 4 1017.0 1016.7 0.0
07/05:00am 6.9 5.6 3.9 81 1.3 CALM 0 6 0 3 1016.8 1016.5 0.0
07/04:30am 7.2 5.9 4.0 80 1.4 CALM 0 0 0 0 1016.7 1016.4 0.0
07/04:00am 7.4 6.1 4.0 79 1.5 CALM 0 0 0 0 1016.8 1016.5 0.0
07/03:30am 8.6 7.5 5.0 78 1.6 CALM 0 4 0 2 1016.9 1016.6 0.0
07/03:00am 8.3 6.3 4.5 77 1.7 W 4 6 2 3 1017.0 1016.7 0.0
07/02:30am 8.7 7.1 4.3 74 2.0 NNW 2 4 1 2 1017.1 1016.8 0.0
07/02:00am 9.3 8.1 4.5 72 2.2 CALM 0 0 0 0 1017.3 1017.0 0.0
07/01:30am 10.0 8.5 5.2 72 2.2 W 2 4 1 2 1017.6 1017.3 0.0
07/01:00am 10.6 9.2 5.4 70 2.4 NW 2 6 1 3 1017.7 1017.4 0.0
07/12:30am 11.2 9.4 5.3 67 2.7 WSW 4 6 2 3 1017.7 1017.4 0.0
07/12:00am 12.2 11.4 6.3 67 2.8 CALM 0 0 0 0 1017.8 1017.5 0.0
 
Date/Time
EST
Temp
°C
App
Temp
°C
Dew
Point
Rel
Hum
%
Delta-T
°C
Wind Press
QNH
hPa
Press
MSL
hPa
Rain
since 9 am
mm
Dir
 
Spd
km/h
Gust
km/h
Spd
kts
Gust
kts
06/11:30pm 12.9 11.6 6.0 63 3.3 SW 2 4 1 2 1018.1 1017.7 0.0
06/11:00pm 13.2 11.5 6.1 62 3.4 SW 4 7 2 4 1018.2 1017.8 0.0
06/10:30pm 13.8 13.0 6.7 62 3.5 CALM 0 2 0 1 1018.3 1017.9 0.0
06/10:00pm 14.1 12.2 7.4 64 3.3 SSW 7 13 4 7 1018.3 1017.9 0.0
06/09:30pm 13.7 13.0 6.8 63 3.4 CALM 0 0 0 0 1017.9 1017.6 0.0
06/09:00pm 13.9 13.1 6.5 61 3.6 CALM 0 0 0 0 1017.8 1017.5 0.0
06/08:30pm 15.2 14.4 6.7 57 4.2 CALM 0 0 0 0 1017.8 1017.5 0.0
06/08:00pm 16.5 15.7 6.3 51 5.0 CALM 0 0 0 0 1017.6 1017.3 0.0
06/07:30pm 17.8 16.3 7.0 49 5.5 SSE 4 4 2 2 1017.3 1017.0 0.0
06/07:00pm 18.4 17.7 6.9 47 5.8 CALM 0 0 0 0 1017.1 1016.8 0.0
06/06:30pm 20.4 19.4 7.4 43 6.7 ESE 2 4 1 2 1016.8 1016.5 0.0
06/06:00pm 20.5 19.7 6.5 40 7.1 CALM 0 0 0 0 1016.6 1016.3 0.0
06/05:30pm 23.0 21.6 7.1 36 8.3 ESE 4 6 2 3 1016.4 1016.1 0.0
06/05:00pm 23.9 22.2 7.5 35 8.7 ESE 6 9 3 5 1016.2 1015.9 0.0
06/04:30pm 25.0 23.3 7.6 33 9.3 ENE 6 9 3 5 1016.1 1015.8 0.0
06/04:00pm 25.3 23.7 7.9 33 9.4 ESE 6 9 3 5 1016.0 1015.7 0.0
06/03:30pm 25.0 23.4 8.1 34 9.1 S 6 11 3 6 1016.1 1015.8 0.0
06/03:00pm 25.1 23.5 8.1 34 9.2 ESE 6 11 3 6 1016.2 1015.9 0.0
06/02:30pm 25.3 23.8 8.3 34 9.2 E 6 9 3 5 1016.5 1016.2 0.0
06/02:00pm 24.7 22.2 8.2 35 8.9 SE 11 15 6 8 1016.8 1016.5 0.0
06/01:30pm 24.7 23.1 8.2 35 8.9 WSW 6 13 3 7 1017.3 1017.0 0.0
06/01:00pm 25.0 23.6 8.9 36 8.8 SSW 6 11 3 6 1017.8 1017.5 0.0
06/12:30pm 23.7 22.1 8.6 38 8.2 WSW 7 17 4 9 1018.5 1018.2 0.0
06/12:00pm 23.2 22.5 9.9 43 7.3 E 4 7 2 4 1019.0 1018.7 0.0
06/11:30am 22.4 21.0 9.6 44 7.0 E 7 11 4 6 1019.5 1019.2 0.0
06/11:00am 21.8 20.6 10.3 48 6.3 NNE 7 11 4 6 1020.0 1019.7 0.0
06/10:30am 20.6 19.7 10.7 53 5.5 NNW 6 11 3 6 1020.3 1020.0 0.0
06/10:00am 19.5 19.2 11.5 60 4.4 NNE 4 7 2 4 1020.4 1020.1 0.0
06/09:30am 17.3 16.8 10.7 65 3.6 SE 4 6 2 3 1020.6 1020.3 0.0
06/09:00am 15.5 15.0 9.2 66 3.3 SSE 2 4 1 2 1020.6 1020.3 0.0
06/08:30am 12.9 11.7 8.0 72 2.5 SW 4 4 2 2 1020.3 1020.0 0.0
06/08:00am 10.6 9.9 6.9 78 1.8 CALM 0 0 0 0 1020.2 1019.9 0.0
06/07:30am 7.6 6.5 5.1 84 1.1 CALM 0 0 0 0 1020.1 1019.8 0.0
06/07:00am 6.4 5.1 4.2 86 1.0 CALM 0 0 0 0 1019.9 1019.6 0.0
06/06:30am 6.5 5.1 3.7 82 1.2 CALM 0 0 0 0 1019.7 1019.4 0.0
06/06:00am 6.7 5.5 4.4 85 1.0 CALM 0 0 0 0 1019.6 1019.3 0.0
06/05:30am 6.9 5.6 4.0 82 1.3 CALM 0 4 0 2 1019.5 1019.2 0.0
06/05:00am 7.1 5.4 4.1 81 1.3 WSW 2 4 1 2 1019.3 1019.0 0.0
06/04:30am 7.5 5.5 4.5 81 1.3 SW 4 6 2 3 1019.2 1018.9 0.0
06/04:00am 7.9 6.4 4.8 81 1.4 WSW 2 4 1 2 1019.2 1018.9 0.0
06/03:30am 8.0 6.8 4.8 80 1.4 CALM 0 2 0 1 1019.3 1019.0 0.0
06/03:00am 8.6 7.1 5.2 79 1.5 WSW 2 4 1 2 1019.3 1019.0 0.0
06/02:30am 8.8 7.0 5.2 78 1.6 WSW 4 6 2 3 1019.3 1019.0 0.0
06/02:00am 9.2 7.7 5.2 76 1.8 SW 2 6 1 3 1019.3 1019.0 0.0
06/01:30am 10.0 8.9 5.0 71 2.3 CALM 0 0 0 0 1019.6 1019.3 0.0
06/01:00am 10.5 9.4 5.1 69 2.5 CALM 0 0 0 0 1019.7 1019.4 0.0
06/12:30am 11.7 9.9 5.6 66 2.9 SW 4 6 2 3 1019.7 1019.4 0.0
06/12:00am 12.0 9.4 6.1 67 2.8 SW 9 9 5 5 1019.8 1019.5 0.0
 
Date/Time
EST
Temp
°C
App
Temp
°C
Dew
Point
Rel
Hum
%
Delta-T
°C
Wind Press
QNH
hPa
Press
MSL
hPa
Rain
since 9 am
mm
Dir
 
Spd
km/h
Gust
km/h
Spd
kts
Gust
kts
05/11:30pm 12.9 11.7 6.3 64 3.2 SSW 2 2 1 1 1019.8 1019.5 0.0
05/11:00pm 12.8 11.9 5.9 63 3.3 CALM 0 0 0 0 1020.0 1019.7 0.0
05/10:30pm 13.7 12.5 6.6 62 3.5 SSE 2 6 1 3 1019.9 1019.6 0.0
05/10:00pm 14.2 13.4 6.3 59 3.8 CALM 0 0 0 0 1019.8 1019.5 0.0
05/09:30pm 14.7 13.9 6.5 58 4.0 CALM 0 0 0 0 1019.7 1019.4 0.0
05/09:00pm 15.9 15.3 7.4 57 4.3 CALM 0 0 0 0 1019.5 1019.2 0.0
05/08:30pm 15.8 15.0 6.5 54 4.6 CALM 0 0 0 0 1019.5 1019.2 0.0
05/08:00pm 16.2 15.5 6.9 54 4.6 CALM 0 0 0 0 1019.5 1019.2 0.0
05/07:30pm 16.5 15.9 7.4 55 4.6 CALM 0 0 0 0 1019.4 1019.1 0.0
05/07:00pm 16.8 16.0 6.3 50 5.2 CALM 0 0 0 0 1019.0 1018.7 0.0
05/06:30pm 18.3 17.6 6.8 47 5.8 CALM 0 0 0 0 1018.7 1018.4 0.0
05/06:00pm 19.7 19.1 7.4 45 6.3 CALM 0 0 0 0 1018.4 1018.0 0.0
05/05:30pm 21.7 21.0 6.8 38 7.7 CALM 0 2 0 1 1018.1 1017.7 0.0
05/05:00pm 23.7 21.7 6.9 34 8.8 N 7 9 4 5 1017.9 1017.6 0.0
05/04:30pm 23.4 21.0 7.1 35 8.6 NNW 9 11 5 6 1017.7 1017.4 0.0
05/04:00pm 24.7 23.9 8.2 35 8.9 E 2 7 1 4 1017.7 1017.4 0.0
05/03:30pm 25.1 23.5 8.1 34 9.2 SE 6 13 3 7 1017.8 1017.5 0.0
05/03:00pm 24.7 22.9 7.8 34 9.0 NE 7 15 4 8 1017.9 1017.6 0.0
05/02:30pm 24.5 22.9 8.0 35 8.9 ENE 6 13 3 7 1018.1 1017.7 0.0
05/02:00pm 24.5 21.6 8.0 35 8.9 NNE 13 20 7 11 1018.4 1018.0 0.0
05/01:30pm 23.7 21.5 7.8 36 8.5 NE 9 17 5 9 1018.8 1018.5 0.0
05/01:00pm 23.8 22.0 7.8 36 8.5 NE 7 15 4 8 1019.2 1018.9 0.0
05/12:30pm 23.5 21.6 7.6 36 8.4 NNE 7 17 4 9 1019.9 1019.6 0.0
05/12:00pm 21.7 20.8 9.3 45 6.7 E 4 11 2 6 1020.6 1020.3 0.0
05/11:30am 21.7 20.6 8.6 43 7.0 E 4 13 2 7 1021.2 1020.9 0.0
05/11:00am 21.8 20.5 10.0 47 6.5 NNE 7 9 4 5 1021.5 1021.2 0.0
05/10:30am 20.7 19.1 10.2 51 5.8 E 9 17 5 9 1022.0 1021.7 0.0
05/10:00am 19.4 18.6 10.9 58 4.7 ESE 6 15 3 8 1022.2 1021.9 0.0
05/09:30am 18.2 17.4 11.0 63 3.9 SE 6 7 3 4 1022.3 1022.0 0.0
05/09:00am 16.0 15.5 10.7 71 2.8 SW 4 6 2 3 1022.3 1022.0 0.0
05/08:30am 13.5 12.4 10.1 80 1.8 SSW 6 6 3 3 1022.0 1021.7 0.0
05/08:00am 11.0 10.4 9.1 88 1.0 SW 2 6 1 3 1021.7 1021.5 0.0
05/07:30am 8.1 6.9 6.6 90 0.7 WSW 2 4 1 2 1021.3 1021.0 0.0
05/07:00am 6.7 5.2 5.0 89 0.8 WSW 2 4 1 2 1021.0 1020.7 0.0
05/06:30am 7.4 6.1 5.9 90 0.7 SW 2 4 1 2 1020.8 1020.5 0.0
05/06:00am 7.5 5.8 5.8 89 0.8 SW 4 6 2 3 1020.5 1020.2 0.0
05/05:30am 7.7 6.7 5.7 87 0.9 CALM 0 0 0 0 1020.2 1019.9 0.0
05/05:00am 8.0 7.0 5.8 86 1.0 CALM 0 0 0 0 1020.3 1020.0 0.0
05/04:30am 8.7 7.9 6.3 85 1.1 CALM 0 0 0 0 1020.2 1019.9 0.0
05/04:00am 9.5 8.9 7.6 88 0.9 CALM 0 0 0 0 1020.2 1019.9 0.0
05/03:30am 9.3 7.8 6.7 84 1.2 SSW 4 4 2 2 1020.0 1019.7 0.0
05/03:00am 10.7 10.0 8.5 86 1.1 ENE 2 4 1 2 1019.6 1019.3 0.0
05/02:30am 10.7 9.5 6.5 75 2.0 ENE 2 4 1 2 1019.9 1019.6 0.0
05/02:00am 13.5 13.4 9.4 76 2.1 CALM 0 0 0 0 1020.4 1020.1 0.0
05/01:30am 13.1 12.6 8.0 71 2.6 CALM 0 0 0 0 1020.7 1020.4 0.0
05/01:00am 13.4 13.0 8.3 71 2.6 CALM 0 0 0 0 1020.7 1020.4 0.0
05/12:30am 13.1 12.2 9.2 77 2.0 NNE 4 6 2 3 1020.5 1020.2 0.0
05/12:00am 13.8 13.0 8.2 69 2.8 NNE 2 4 1 2 1020.8 1020.5 0.0

Other Formats:

Comma delimited format used in spreadsheet applications
http://www.bom.gov.au/fwo/IDQ60801/IDQ60801.94395.axf

JavaScript Object Notation format (JSON) in row-major order
http://www.bom.gov.au/fwo/IDQ60801/IDQ60801.94395.json